Terminal Aerodrome Forecast
Issued by NWS Cleveland, OH

Home | Current Version | Previous Version | Text Only | Print | Product List | Glossary Off
Versions: 1 2 3 4 5 6 7 8 9 10 11 12 13 14 15 16 17 18 19 20 21 22 23 24 25 26 27 28 29 30

280
FTUS41 KCLE 181740
TAFCLE
TAF
KCLE 181740Z 1818/1924 18014G22KT 3SM -SHRA OVC015 WS020/22045KT
      TEMPO 1818/1820 2SM -SHRA BKN008
     FM182000 20015G32KT 2SM -SHRA VCTS OVC008CB
      TEMPO 1820/1823 VRB30G40KT 1SM +TSRA OVC003CB
     FM190000 27020G35KT 2SM -SHRA BR OVC006
     FM190600 30025G40KT 3SM -SHRA BR OVC010
     FM191000 30020G30KT 6SM BR OVC020=

USA.gov is the U.S. government's official web portal to all federal, state and local government web resources and services.